sensor_id;sensor_type;location;lat;lon;timestamp;P1;durP1;ratioP1;P2;durP2;ratioP2
17852;SDS011;9052;53.494;14.376;2023-02-01T00:01:04;14.83;;;3.27;;
17852;SDS011;9052;53.494;14.376;2023-02-01T00:03:33;16.07;;;2.87;;
17852;SDS011;9052;53.494;14.376;2023-02-01T00:06:00;7.70;;;2.53;;
17852;SDS011;9052;53.494;14.376;2023-02-01T00:08:27;11.23;;;2.57;;
17852;SDS011;9052;53.494;14.376;2023-02-01T00:11:00;15.50;;;3.03;;
17852;SDS011;9052;53.494;14.376;2023-02-01T00:13:30;11.50;;;2.17;;
17852;SDS011;9052;53.494;14.376;2023-02-01T00:16:02;13.27;;;2.73;;
17852;SDS011;9052;53.494;14.376;2023-02-01T00:18:29;17.20;;;4.03;;
17852;SDS011;9052;53.494;14.376;2023-02-01T00:20:57;20.53;;;4.47;;
17852;SDS011;9052;53.494;14.376;2023-02-01T00:23:23;18.00;;;3.17;;
17852;SDS011;9052;53.494;14.376;2023-02-01T00:25:50;7.50;;;3.07;;
17852;SDS011;9052;53.494;14.376;2023-02-01T00:28:17;24.67;;;4.40;;
17852;SDS011;9052;53.494;14.376;2023-02-01T00:30:43;19.00;;;3.50;;
17852;SDS011;9052;53.494;14.376;2023-02-01T00:33:10;18.10;;;3.90;;
17852;SDS011;9052;53.494;14.376;2023-02-01T00:35:37;12.87;;;3.63;;
17852;SDS011;9052;53.494;14.376;2023-02-01T00:38:04;12.53;;;4.73;;
17852;SDS011;9052;53.494;14.376;2023-02-01T00:40:31;22.93;;;4.10;;
17852;SDS011;9052;53.494;14.376;2023-02-01T00:42:58;21.80;;;4.10;;
17852;SDS011;9052;53.494;14.376;2023-02-01T00:45:24;13.90;;;3.40;;
17852;SDS011;9052;53.494;14.376;2023-02-01T00:47:51;19.10;;;4.70;;
17852;SDS011;9052;53.494;14.376;2023-02-01T00:50:18;10.07;;;2.53;;
17852;SDS011;9052;53.494;14.376;2023-02-01T00:52:44;15.37;;;2.70;;
17852;SDS011;9052;53.494;14.376;2023-02-01T00:55:12;12.87;;;3.33;;
17852;SDS011;9052;53.494;14.376;2023-02-01T00:57:39;8.83;;;2.47;;
17852;SDS011;9052;53.494;14.376;2023-02-01T01:00:06;12.03;;;2.60;;
17852;SDS011;9052;53.494;14.376;2023-02-01T01:02:33;19.80;;;3.10;;
17852;SDS011;9052;53.494;14.376;2023-02-01T01:05:00;7.77;;;2.30;;
17852;SDS011;9052;53.494;14.376;2023-02-01T01:07:27;17.00;;;2.17;;
17852;SDS011;9052;53.494;14.376;2023-02-01T01:09:54;17.83;;;2.37;;
17852;SDS011;9052;53.494;14.376;2023-02-01T01:12:22;10.97;;;3.30;;
17852;SDS011;9052;53.494;14.376;2023-02-01T01:14:49;30.67;;;3.03;;
17852;SDS011;9052;53.494;14.376;2023-02-01T01:17:15;21.80;;;3.60;;
17852;SDS011;9052;53.494;14.376;2023-02-01T01:19:42;13.90;;;4.07;;
17852;SDS011;9052;53.494;14.376;2023-02-01T01:22:09;24.77;;;3.10;;
17852;SDS011;9052;53.494;14.376;2023-02-01T01:24:35;24.47;;;3.23;;
17852;SDS011;9052;53.494;14.376;2023-02-01T01:27:02;9.83;;;3.40;;
17852;SDS011;9052;53.494;14.376;2023-02-01T01:29:30;22.47;;;3.60;;
17852;SDS011;9052;53.494;14.376;2023-02-01T01:31:57;18.53;;;2.90;;
17852;SDS011;9052;53.494;14.376;2023-02-01T01:34:23;13.20;;;3.23;;
17852;SDS011;9052;53.494;14.376;2023-02-01T01:36:50;11.23;;;3.27;;
17852;SDS011;9052;53.494;14.376;2023-02-01T01:39:17;9.83;;;2.93;;
17852;SDS011;9052;53.494;14.376;2023-02-01T01:41:43;26.97;;;3.80;;
17852;SDS011;9052;53.494;14.376;2023-02-01T01:47:11;22.47;;;3.90;;
17852;SDS011;9052;53.494;14.376;2023-02-01T01:49:38;14.80;;;3.10;;
17852;SDS011;9052;53.494;14.376;2023-02-01T01:52:05;25.60;;;3.20;;
17852;SDS011;9052;53.494;14.376;2023-02-01T01:54:32;11.93;;;2.83;;
17852;SDS011;9052;53.494;14.376;2023-02-01T01:57:03;19.37;;;3.90;;
17852;SDS011;9052;53.494;14.376;2023-02-01T01:59:31;11.97;;;2.73;;
17852;SDS011;9052;53.494;14.376;2023-02-01T02:01:58;18.43;;;3.47;;
17852;SDS011;9052;53.494;14.376;2023-02-01T02:04:27;20.10;;;3.70;;
17852;SDS011;9052;53.494;14.376;2023-02-01T02:06:54;13.77;;;3.67;;
17852;SDS011;9052;53.494;14.376;2023-02-01T02:09:23;16.07;;;2.70;;
17852;SDS011;9052;53.494;14.376;2023-02-01T02:11:50;17.00;;;3.17;;
17852;SDS011;9052;53.494;14.376;2023-02-01T02:14:17;41.97;;;4.73;;
17852;SDS011;9052;53.494;14.376;2023-02-01T02:16:52;15.13;;;3.13;;
17852;SDS011;9052;53.494;14.376;2023-02-01T02:22:48;17.33;;;3.77;;
17852;SDS011;9052;53.494;14.376;2023-02-01T02:25:56;21.60;;;4.53;;
17852;SDS011;9052;53.494;14.376;2023-02-01T02:31:36;26.33;;;4.03;;
17852;SDS011;9052;53.494;14.376;2023-02-01T02:34:12;19.00;;;3.13;;
17852;SDS011;9052;53.494;14.376;2023-02-01T02:36:43;12.67;;;2.70;;
17852;SDS011;9052;53.494;14.376;2023-02-01T02:39:20;10.40;;;2.50;;
17852;SDS011;9052;53.494;14.376;2023-02-01T02:41:49;16.03;;;3.27;;
17852;SDS011;9052;53.494;14.376;2023-02-01T02:44:39;6.70;;;2.27;;
17852;SDS011;9052;53.494;14.376;2023-02-01T02:47:31;20.20;;;3.90;;
17852;SDS011;9052;53.494;14.376;2023-02-01T02:50:12;14.03;;;3.00;;
17852;SDS011;9052;53.494;14.376;2023-02-01T02:53:02;10.23;;;1.80;;
17852;SDS011;9052;53.494;14.376;2023-02-01T02:55:57;12.30;;;3.37;;
17852;SDS011;9052;53.494;14.376;2023-02-01T02:58:42;8.33;;;1.70;;
17852;SDS011;9052;53.494;14.376;2023-02-01T03:01:27;8.77;;;3.27;;
17852;SDS011;9052;53.494;14.376;2023-02-01T03:04:11;19.80;;;2.37;;
17852;SDS011;9052;53.494;14.376;2023-02-01T03:06:43;11.97;;;1.97;;
17852;SDS011;9052;53.494;14.376;2023-02-01T03:09:12;10.83;;;2.50;;
17852;SDS011;9052;53.494;14.376;2023-02-01T03:11:42;20.43;;;1.63;;
17852;SDS011;9052;53.494;14.376;2023-02-01T03:14:29;13.50;;;2.83;;
17852;SDS011;9052;53.494;14.376;2023-02-01T03:16:57;7.70;;;1.83;;
17852;SDS011;9052;53.494;14.376;2023-02-01T03:19:27;7.63;;;1.20;;
17852;SDS011;9052;53.494;14.376;2023-02-01T03:21:57;15.10;;;3.03;;
17852;SDS011;9052;53.494;14.376;2023-02-01T03:24:26;5.90;;;1.80;;
17852;SDS011;9052;53.494;14.376;2023-02-01T03:27:01;10.67;;;2.00;;
17852;SDS011;9052;53.494;14.376;2023-02-01T03:29:29;9.70;;;2.13;;
17852;SDS011;9052;53.494;14.376;2023-02-01T03:31:59;10.67;;;2.53;;
17852;SDS011;9052;53.494;14.376;2023-02-01T03:34:25;6.13;;;1.13;;
17852;SDS011;9052;53.494;14.376;2023-02-01T03:36:54;10.27;;;1.70;;
17852;SDS011;9052;53.494;14.376;2023-02-01T03:39:25;5.70;;;1.73;;
17852;SDS011;9052;53.494;14.376;2023-02-01T03:41:57;8.70;;;2.03;;
17852;SDS011;9052;53.494;14.376;2023-02-01T03:44:26;10.50;;;1.53;;
17852;SDS011;9052;53.494;14.376;2023-02-01T03:46:58;9.50;;;1.10;;
17852;SDS011;9052;53.494;14.376;2023-02-01T03:49:27;8.80;;;2.03;;
17852;SDS011;9052;53.494;14.376;2023-02-01T03:51:55;3.40;;;1.20;;
17852;SDS011;9052;53.494;14.376;2023-02-01T03:54:25;6.07;;;1.37;;
17852;SDS011;9052;53.494;14.376;2023-02-01T03:56:52;10.97;;;1.90;;
17852;SDS011;9052;53.494;14.376;2023-02-01T03:59:21;5.13;;;1.80;;
17852;SDS011;9052;53.494;14.376;2023-02-01T04:01:49;10.57;;;2.53;;
17852;SDS011;9052;53.494;14.376;2023-02-01T04:04:15;8.77;;;1.63;;
17852;SDS011;9052;53.494;14.376;2023-02-01T04:06:44;7.10;;;1.37;;
17852;SDS011;9052;53.494;14.376;2023-02-01T04:09:12;7.63;;;1.60;;
17852;SDS011;9052;53.494;14.376;2023-02-01T04:11:39;3.17;;;2.30;;
17852;SDS011;9052;53.494;14.376;2023-02-01T04:14:06;10.57;;;2.10;;
17852;SDS011;9052;53.494;14.376;2023-02-01T04:16:32;6.37;;;1.90;;
17852;SDS011;9052;53.494;14.376;2023-02-01T04:18:59;3.43;;;1.80;;
17852;SDS011;9052;53.494;14.376;2023-02-01T04:21:26;4.30;;;2.20;;
17852;SDS011;9052;53.494;14.376;2023-02-01T04:23:53;7.97;;;1.80;;
17852;SDS011;9052;53.494;14.376;2023-02-01T04:26:21;7.00;;;1.77;;
17852;SDS011;9052;53.494;14.376;2023-02-01T04:28:48;10.20;;;2.07;;
17852;SDS011;9052;53.494;14.376;2023-02-01T04:31:15;10.23;;;2.67;;
17852;SDS011;9052;53.494;14.376;2023-02-01T04:33:43;12.63;;;1.80;;
17852;SDS011;9052;53.494;14.376;2023-02-01T04:36:09;7.77;;;2.20;;
17852;SDS011;9052;53.494;14.376;2023-02-01T04:38:36;10.30;;;2.40;;
17852;SDS011;9052;53.494;14.376;2023-02-01T04:41:03;8.30;;;2.10;;
17852;SDS011;9052;53.494;14.376;2023-02-01T04:43:31;25.70;;;2.60;;
17852;SDS011;9052;53.494;14.376;2023-02-01T04:45:57;7.03;;;2.20;;
17852;SDS011;9052;53.494;14.376;2023-02-01T04:48:24;7.33;;;2.10;;
17852;SDS011;9052;53.494;14.376;2023-02-01T04:50:51;5.57;;;1.40;;
17852;SDS011;9052;53.494;14.376;2023-02-01T04:53:17;2.20;;;0.80;;
17852;SDS011;9052;53.494;14.376;2023-02-01T04:55:44;11.73;;;1.60;;
17852;SDS011;9052;53.494;14.376;2023-02-01T04:58:11;7.63;;;2.10;;
17852;SDS011;9052;53.494;14.376;2023-02-01T05:00:39;17.80;;;1.33;;
17852;SDS011;9052;53.494;14.376;2023-02-01T05:03:05;8.50;;;1.00;;
17852;SDS011;9052;53.494;14.376;2023-02-01T05:05:32;4.90;;;0.93;;
17852;SDS011;9052;53.494;14.376;2023-02-01T05:07:59;2.43;;;1.00;;
17852;SDS011;9052;53.494;14.376;2023-02-01T05:10:26;6.17;;;1.33;;
17852;SDS011;9052;53.494;14.376;2023-02-01T05:12:52;15.93;;;2.63;;
17852;SDS011;9052;53.494;14.376;2023-02-01T05:15:36;4.17;;;1.07;;
17852;SDS011;9052;53.494;14.376;2023-02-01T05:18:04;6.53;;;1.43;;
17852;SDS011;9052;53.494;14.376;2023-02-01T05:20:31;7.90;;;1.60;;
17852;SDS011;9052;53.494;14.376;2023-02-01T05:22:58;8.03;;;1.33;;
17852;SDS011;9052;53.494;14.376;2023-02-01T05:25:24;4.50;;;2.10;;
17852;SDS011;9052;53.494;14.376;2023-02-01T05:27:51;6.00;;;1.30;;
17852;SDS011;9052;53.494;14.376;2023-02-01T05:30:17;9.10;;;1.50;;
17852;SDS011;9052;53.494;14.376;2023-02-01T05:32:44;12.23;;;2.20;;
17852;SDS011;9052;53.494;14.376;2023-02-01T05:35:12;4.63;;;1.30;;
17852;SDS011;9052;53.494;14.376;2023-02-01T05:37:39;3.50;;;1.13;;
17852;SDS011;9052;53.494;14.376;2023-02-01T05:40:06;7.30;;;1.77;;
17852;SDS011;9052;53.494;14.376;2023-02-01T05:42:33;13.67;;;1.67;;
17852;SDS011;9052;53.494;14.376;2023-02-01T05:45:00;13.00;;;2.60;;
17852;SDS011;9052;53.494;14.376;2023-02-01T05:47:26;6.40;;;1.90;;
17852;SDS011;9052;53.494;14.376;2023-02-01T05:49:53;13.97;;;1.10;;
17852;SDS011;9052;53.494;14.376;2023-02-01T05:52:21;11.10;;;2.37;;
17852;SDS011;9052;53.494;14.376;2023-02-01T05:54:48;10.70;;;2.20;;
17852;SDS011;9052;53.494;14.376;2023-02-01T05:57:15;7.57;;;3.20;;
17852;SDS011;9052;53.494;14.376;2023-02-01T05:59:42;12.20;;;1.80;;
17852;SDS011;9052;53.494;14.376;2023-02-01T06:02:09;23.47;;;2.60;;
17852;SDS011;9052;53.494;14.376;2023-02-01T06:04:36;10.80;;;2.63;;
17852;SDS011;9052;53.494;14.376;2023-02-01T06:07:03;7.03;;;1.50;;
17852;SDS011;9052;53.494;14.376;2023-02-01T06:09:32;17.57;;;3.00;;
17852;SDS011;9052;53.494;14.376;2023-02-01T06:11:58;29.07;;;3.53;;
17852;SDS011;9052;53.494;14.376;2023-02-01T06:14:26;14.80;;;2.70;;
17852;SDS011;9052;53.494;14.376;2023-02-01T06:16:52;21.40;;;3.60;;
17852;SDS011;9052;53.494;14.376;2023-02-01T06:19:19;9.10;;;2.30;;
17852;SDS011;9052;53.494;14.376;2023-02-01T06:21:46;10.00;;;2.97;;
17852;SDS011;9052;53.494;14.376;2023-02-01T06:24:13;19.97;;;3.23;;
17852;SDS011;9052;53.494;14.376;2023-02-01T06:26:41;12.57;;;3.33;;
17852;SDS011;9052;53.494;14.376;2023-02-01T06:29:09;11.23;;;3.40;;
17852;SDS011;9052;53.494;14.376;2023-02-01T06:31:36;13.10;;;4.20;;
17852;SDS011;9052;53.494;14.376;2023-02-01T06:34:02;24.83;;;4.77;;
17852;SDS011;9052;53.494;14.376;2023-02-01T06:36:29;22.00;;;3.23;;
17852;SDS011;9052;53.494;14.376;2023-02-01T06:38:55;15.83;;;3.07;;
17852;SDS011;9052;53.494;14.376;2023-02-01T06:41:24;31.90;;;3.97;;
17852;SDS011;9052;53.494;14.376;2023-02-01T06:43:52;33.70;;;5.00;;
17852;SDS011;9052;53.494;14.376;2023-02-01T06:46:18;30.00;;;4.73;;
17852;SDS011;9052;53.494;14.376;2023-02-01T06:48:45;12.33;;;3.60;;
17852;SDS011;9052;53.494;14.376;2023-02-01T06:51:18;30.53;;;5.07;;
17852;SDS011;9052;53.494;14.376;2023-02-01T06:53:45;15.20;;;3.87;;
17852;SDS011;9052;53.494;14.376;2023-02-01T06:56:12;28.20;;;4.30;;
17852;SDS011;9052;53.494;14.376;2023-02-01T06:58:39;20.37;;;3.53;;
17852;SDS011;9052;53.494;14.376;2023-02-01T07:01:08;30.23;;;4.23;;
17852;SDS011;9052;53.494;14.376;2023-02-01T07:03:35;21.17;;;5.67;;
17852;SDS011;9052;53.494;14.376;2023-02-01T07:06:02;17.77;;;3.20;;
17852;SDS011;9052;53.494;14.376;2023-02-01T07:08:30;17.40;;;4.80;;
17852;SDS011;9052;53.494;14.376;2023-02-01T07:11:00;19.60;;;4.90;;
17852;SDS011;9052;53.494;14.376;2023-02-01T07:13:27;28.13;;;4.93;;
17852;SDS011;9052;53.494;14.376;2023-02-01T07:15:57;23.57;;;3.60;;
17852;SDS011;9052;53.494;14.376;2023-02-01T07:18:25;18.73;;;4.33;;
17852;SDS011;9052;53.494;14.376;2023-02-01T07:20:52;22.03;;;4.07;;
17852;SDS011;9052;53.494;14.376;2023-02-01T07:23:19;20.07;;;3.70;;
17852;SDS011;9052;53.494;14.376;2023-02-01T07:25:45;19.03;;;4.10;;
17852;SDS011;9052;53.494;14.376;2023-02-01T07:28:12;11.67;;;4.30;;
17852;SDS011;9052;53.494;14.376;2023-02-01T07:30:39;27.70;;;4.00;;
17852;SDS011;9052;53.494;14.376;2023-02-01T07:33:06;25.60;;;4.20;;
17852;SDS011;9052;53.494;14.376;2023-02-01T07:35:35;23.33;;;3.70;;
17852;SDS011;9052;53.494;14.376;2023-02-01T07:38:01;24.03;;;3.60;;
17852;SDS011;9052;53.494;14.376;2023-02-01T07:40:28;16.70;;;3.70;;
17852;SDS011;9052;53.494;14.376;2023-02-01T07:42:55;26.70;;;3.67;;
17852;SDS011;9052;53.494;14.376;2023-02-01T07:45:22;21.27;;;3.67;;
17852;SDS011;9052;53.494;14.376;2023-02-01T07:47:50;22.93;;;3.80;;
17852;SDS011;9052;53.494;14.376;2023-02-01T07:50:17;17.07;;;3.90;;
17852;SDS011;9052;53.494;14.376;2023-02-01T07:52:45;10.73;;;3.40;;
17852;SDS011;9052;53.494;14.376;2023-02-01T07:55:12;21.13;;;3.30;;
17852;SDS011;9052;53.494;14.376;2023-02-01T07:57:39;11.10;;;2.47;;
17852;SDS011;9052;53.494;14.376;2023-02-01T08:00:06;12.20;;;2.00;;
17852;SDS011;9052;53.494;14.376;2023-02-01T08:02:51;16.20;;;2.67;;
17852;SDS011;9052;53.494;14.376;2023-02-01T08:05:17;14.80;;;3.00;;
17852;SDS011;9052;53.494;14.376;2023-02-01T08:07:47;15.97;;;1.90;;
17852;SDS011;9052;53.494;14.376;2023-02-01T08:10:15;9.97;;;2.60;;
17852;SDS011;9052;53.494;14.376;2023-02-01T08:12:42;8.23;;;1.80;;
17852;SDS011;9052;53.494;14.376;2023-02-01T08:15:12;11.13;;;2.13;;
17852;SDS011;9052;53.494;14.376;2023-02-01T08:17:39;9.67;;;2.30;;
17852;SDS011;9052;53.494;14.376;2023-02-01T08:20:06;14.50;;;1.30;;
17852;SDS011;9052;53.494;14.376;2023-02-01T08:22:33;10.70;;;2.33;;
17852;SDS011;9052;53.494;14.376;2023-02-01T08:25:01;4.60;;;2.00;;
17852;SDS011;9052;53.494;14.376;2023-02-01T08:27:28;9.77;;;1.40;;
17852;SDS011;9052;53.494;14.376;2023-02-01T08:29:55;5.77;;;1.50;;
17852;SDS011;9052;53.494;14.376;2023-02-01T08:32:21;4.73;;;1.23;;
17852;SDS011;9052;53.494;14.376;2023-02-01T08:34:48;5.80;;;1.43;;
17852;SDS011;9052;53.494;14.376;2023-02-01T08:37:15;2.53;;;1.07;;
17852;SDS011;9052;53.494;14.376;2023-02-01T08:39:41;1.30;;;0.80;;
17852;SDS011;9052;53.494;14.376;2023-02-01T08:42:11;5.87;;;1.73;;
17852;SDS011;9052;53.494;14.376;2023-02-01T08:44:55;3.10;;;0.97;;
17852;SDS011;9052;53.494;14.376;2023-02-01T08:47:21;2.20;;;1.10;;
17852;SDS011;9052;53.494;14.376;2023-02-01T08:49:48;1.17;;;0.50;;
17852;SDS011;9052;53.494;14.376;2023-02-01T08:52:15;1.03;;;0.50;;
17852;SDS011;9052;53.494;14.376;2023-02-01T08:54:41;1.70;;;0.50;;
17852;SDS011;9052;53.494;14.376;2023-02-01T08:57:08;2.30;;;0.77;;
17852;SDS011;9052;53.494;14.376;2023-02-01T08:59:37;6.33;;;0.83;;
17852;SDS011;9052;53.494;14.376;2023-02-01T09:02:03;0.83;;;0.50;;
17852;SDS011;9052;53.494;14.376;2023-02-01T09:04:30;5.00;;;1.23;;
17852;SDS011;9052;53.494;14.376;2023-02-01T09:06:57;3.20;;;1.40;;
17852;SDS011;9052;53.494;14.376;2023-02-01T09:09:24;10.10;;;0.90;;
17852;SDS011;9052;53.494;14.376;2023-02-01T09:11:53;2.93;;;0.90;;
17852;SDS011;9052;53.494;14.376;2023-02-01T09:14:19;3.00;;;0.53;;
17852;SDS011;9052;53.494;14.376;2023-02-01T09:16:48;0.70;;;0.63;;
17852;SDS011;9052;53.494;14.376;2023-02-01T09:19:14;11.17;;;0.80;;
17852;SDS011;9052;53.494;14.376;2023-02-01T09:21:41;2.97;;;1.20;;
17852;SDS011;9052;53.494;14.376;2023-02-01T09:24:08;0.73;;;0.50;;
17852;SDS011;9052;53.494;14.376;2023-02-01T09:26:35;1.53;;;0.60;;
17852;SDS011;9052;53.494;14.376;2023-02-01T09:29:02;1.80;;;0.50;;
17852;SDS011;9052;53.494;14.376;2023-02-01T09:31:31;0.60;;;0.40;;
17852;SDS011;9052;53.494;14.376;2023-02-01T09:33:59;4.03;;;0.50;;
17852;SDS011;9052;53.494;14.376;2023-02-01T09:36:26;12.57;;;1.30;;
17852;SDS011;9052;53.494;14.376;2023-02-01T09:38:52;21.03;;;1.10;;
17852;SDS011;9052;53.494;14.376;2023-02-01T09:41:22;1.47;;;0.77;;
17852;SDS011;9052;53.494;14.376;2023-02-01T09:43:57;9.93;;;1.40;;
17852;SDS011;9052;53.494;14.376;2023-02-01T09:46:28;8.90;;;1.03;;
17852;SDS011;9052;53.494;14.376;2023-02-01T09:48:58;1.23;;;0.50;;
17852;SDS011;9052;53.494;14.376;2023-02-01T09:51:30;0.87;;;0.53;;
17852;SDS011;9052;53.494;14.376;2023-02-01T09:53:59;0.80;;;0.60;;
17852;SDS011;9052;53.494;14.376;2023-02-01T09:56:35;2.13;;;0.80;;
17852;SDS011;9052;53.494;14.376;2023-02-01T09:59:04;3.80;;;0.80;;
17852;SDS011;9052;53.494;14.376;2023-02-01T10:01:37;1.70;;;0.80;;
17852;SDS011;9052;53.494;14.376;2023-02-01T10:04:07;2.00;;;0.90;;
17852;SDS011;9052;53.494;14.376;2023-02-01T10:06:45;0.40;;;0.40;;
17852;SDS011;9052;53.494;14.376;2023-02-01T10:09:26;3.20;;;0.70;;
17852;SDS011;9052;53.494;14.376;2023-02-01T10:14:54;2.20;;;0.70;;
17852;SDS011;9052;53.494;14.376;2023-02-01T10:17:25;11.57;;;1.50;;
17852;SDS011;9052;53.494;14.376;2023-02-01T10:20:05;0.77;;;0.77;;
17852;SDS011;9052;53.494;14.376;2023-02-01T10:22:39;2.80;;;1.40;;
17852;SDS011;9052;53.494;14.376;2023-02-01T10:25:08;1.93;;;0.90;;
17852;SDS011;9052;53.494;14.376;2023-02-01T10:27:40;2.73;;;1.20;;
17852;SDS011;9052;53.494;14.376;2023-02-01T10:30:14;4.90;;;1.37;;
17852;SDS011;9052;53.494;14.376;2023-02-01T10:32:44;7.03;;;1.43;;
17852;SDS011;9052;53.494;14.376;2023-02-01T10:35:13;4.50;;;1.87;;
17852;SDS011;9052;53.494;14.376;2023-02-01T10:37:42;2.40;;;1.07;;
17852;SDS011;9052;53.494;14.376;2023-02-01T10:40:12;10.97;;;1.90;;
17852;SDS011;9052;53.494;14.376;2023-02-01T10:42:42;6.20;;;1.50;;
17852;SDS011;9052;53.494;14.376;2023-02-01T10:45:11;5.67;;;1.90;;
17852;SDS011;9052;53.494;14.376;2023-02-01T10:47:39;5.60;;;1.23;;
17852;SDS011;9052;53.494;14.376;2023-02-01T10:50:11;4.13;;;1.07;;
17852;SDS011;9052;53.494;14.376;2023-02-01T10:52:43;9.30;;;2.03;;
17852;SDS011;9052;53.494;14.376;2023-02-01T10:55:28;4.17;;;1.63;;
17852;SDS011;9052;53.494;14.376;2023-02-01T10:57:57;7.07;;;1.67;;
17852;SDS011;9052;53.494;14.376;2023-02-01T11:00:25;8.50;;;2.20;;
17852;SDS011;9052;53.494;14.376;2023-02-01T11:02:52;22.63;;;2.00;;
17852;SDS011;9052;53.494;14.376;2023-02-01T11:05:20;14.10;;;2.83;;
17852;SDS011;9052;53.494;14.376;2023-02-01T11:07:49;3.47;;;1.40;;
17852;SDS011;9052;53.494;14.376;2023-02-01T11:10:35;12.00;;;2.13;;
17852;SDS011;9052;53.494;14.376;2023-02-01T11:13:03;7.07;;;1.80;;
17852;SDS011;9052;53.494;14.376;2023-02-01T11:15:30;12.50;;;2.20;;
17852;SDS011;9052;53.494;14.376;2023-02-01T11:17:57;8.57;;;1.77;;
17852;SDS011;9052;53.494;14.376;2023-02-01T11:20:43;3.50;;;0.80;;
17852;SDS011;9052;53.494;14.376;2023-02-01T11:23:14;6.03;;;1.80;;
17852;SDS011;9052;53.494;14.376;2023-02-01T11:25:47;12.00;;;1.67;;
17852;SDS011;9052;53.494;14.376;2023-02-01T11:28:14;4.20;;;1.33;;
17852;SDS011;9052;53.494;14.376;2023-02-01T11:30:42;6.37;;;1.80;;
17852;SDS011;9052;53.494;14.376;2023-02-01T11:33:12;7.50;;;2.00;;
17852;SDS011;9052;53.494;14.376;2023-02-01T11:35:42;7.03;;;2.13;;
17852;SDS011;9052;53.494;14.376;2023-02-01T11:38:11;8.27;;;2.00;;
17852;SDS011;9052;53.494;14.376;2023-02-01T11:40:42;7.57;;;2.60;;
17852;SDS011;9052;53.494;14.376;2023-02-01T11:43:24;11.00;;;3.50;;
17852;SDS011;9052;53.494;14.376;2023-02-01T11:45:56;13.83;;;2.80;;
17852;SDS011;9052;53.494;14.376;2023-02-01T11:48:24;13.63;;;2.93;;
17852;SDS011;9052;53.494;14.376;2023-02-01T11:50:55;14.10;;;2.13;;
17852;SDS011;9052;53.494;14.376;2023-02-01T11:53:37;10.57;;;2.80;;
17852;SDS011;9052;53.494;14.376;2023-02-01T11:56:11;13.00;;;1.60;;
17852;SDS011;9052;53.494;14.376;2023-02-01T11:58:57;3.23;;;1.10;;
17852;SDS011;9052;53.494;14.376;2023-02-01T12:01:40;6.93;;;2.80;;
17852;SDS011;9052;53.494;14.376;2023-02-01T12:07:25;1.13;;;1.00;;
17852;SDS011;9052;53.494;14.376;2023-02-01T12:10:01;3.30;;;1.17;;
17852;SDS011;9052;53.494;14.376;2023-02-01T12:12:34;2.47;;;1.37;;
17852;SDS011;9052;53.494;14.376;2023-02-01T12:15:14;1.40;;;0.53;;
17852;SDS011;9052;53.494;14.376;2023-02-01T12:18:03;1.03;;;0.63;;
17852;SDS011;9052;53.494;14.376;2023-02-01T12:20:52;3.27;;;0.77;;
17852;SDS011;9052;53.494;14.376;2023-02-01T12:23:30;9.13;;;1.47;;
17852;SDS011;9052;53.494;14.376;2023-02-01T12:26:08;2.00;;;0.43;;
17852;SDS011;9052;53.494;14.376;2023-02-01T12:28:59;0.70;;;0.60;;
17852;SDS011;9052;53.494;14.376;2023-02-01T12:31:38;4.13;;;0.43;;
17852;SDS011;9052;53.494;14.376;2023-02-01T12:34:15;0.93;;;0.53;;
17852;SDS011;9052;53.494;14.376;2023-02-01T12:36:50;1.30;;;0.47;;
17852;SDS011;9052;53.494;14.376;2023-02-01T12:39:27;1.60;;;0.83;;
17852;SDS011;9052;53.494;14.376;2023-02-01T12:41:58;6.00;;;1.17;;
17852;SDS011;9052;53.494;14.376;2023-02-01T12:44:34;4.37;;;2.47;;
17852;SDS011;9052;53.494;14.376;2023-02-01T12:47:05;5.33;;;2.70;;
17852;SDS011;9052;53.494;14.376;2023-02-01T12:49:38;2.17;;;0.73;;
17852;SDS011;9052;53.494;14.376;2023-02-01T12:52:13;3.50;;;0.60;;
17852;SDS011;9052;53.494;14.376;2023-02-01T12:54:45;6.83;;;0.77;;
17852;SDS011;9052;53.494;14.376;2023-02-01T12:57:14;3.53;;;0.70;;
17852;SDS011;9052;53.494;14.376;2023-02-01T12:59:44;6.00;;;3.20;;
17852;SDS011;9052;53.494;14.376;2023-02-01T13:02:15;3.90;;;1.70;;
17852;SDS011;9052;53.494;14.376;2023-02-01T13:04:49;6.10;;;1.03;;
17852;SDS011;9052;53.494;14.376;2023-02-01T13:07:21;5.13;;;1.40;;
17852;SDS011;9052;53.494;14.376;2023-02-01T13:09:52;2.63;;;0.80;;
17852;SDS011;9052;53.494;14.376;2023-02-01T13:12:21;1.37;;;0.83;;
17852;SDS011;9052;53.494;14.376;2023-02-01T13:14:57;0.80;;;0.70;;
17852;SDS011;9052;53.494;14.376;2023-02-01T13:17:27;4.73;;;0.60;;
17852;SDS011;9052;53.494;14.376;2023-02-01T13:19:55;4.00;;;0.83;;
17852;SDS011;9052;53.494;14.376;2023-02-01T13:22:25;0.73;;;0.70;;
17852;SDS011;9052;53.494;14.376;2023-02-01T13:24:57;10.53;;;1.13;;
17852;SDS011;9052;53.494;14.376;2023-02-01T13:27:26;4.23;;;1.37;;
17852;SDS011;9052;53.494;14.376;2023-02-01T13:29:55;3.77;;;1.07;;
17852;SDS011;9052;53.494;14.376;2023-02-01T13:32:49;4.70;;;1.70;;
17852;SDS011;9052;53.494;14.376;2023-02-01T13:35:44;5.70;;;1.20;;
17852;SDS011;9052;53.494;14.376;2023-02-01T13:41:11;4.57;;;0.80;;
17852;SDS011;9052;53.494;14.376;2023-02-01T13:43:49;2.50;;;0.43;;
17852;SDS011;9052;53.494;14.376;2023-02-01T13:46:17;2.97;;;1.00;;
17852;SDS011;9052;53.494;14.376;2023-02-01T13:48:46;3.00;;;0.70;;
17852;SDS011;9052;53.494;14.376;2023-02-01T13:51:15;0.70;;;0.50;;
17852;SDS011;9052;53.494;14.376;2023-02-01T13:53:45;7.33;;;0.80;;
17852;SDS011;9052;53.494;14.376;2023-02-01T13:56:15;1.77;;;0.97;;
17852;SDS011;9052;53.494;14.376;2023-02-01T13:58:43;3.03;;;0.47;;
17852;SDS011;9052;53.494;14.376;2023-02-01T14:04:00;4.10;;;0.60;;
17852;SDS011;9052;53.494;14.376;2023-02-01T14:06:36;3.73;;;0.50;;
17852;SDS011;9052;53.494;14.376;2023-02-01T14:09:13;10.03;;;1.27;;
17852;SDS011;9052;53.494;14.376;2023-02-01T14:11:47;4.43;;;1.53;;
17852;SDS011;9052;53.494;14.376;2023-02-01T14:23:24;13.90;;;1.90;;
17852;SDS011;9052;53.494;14.376;2023-02-01T14:26:13;3.40;;;1.60;;
17852;SDS011;9052;53.494;14.376;2023-02-01T14:28:47;6.90;;;1.50;;
17852;SDS011;9052;53.494;14.376;2023-02-01T14:34:11;15.03;;;2.40;;
17852;SDS011;9052;53.494;14.376;2023-02-01T14:36:44;23.40;;;1.97;;
17852;SDS011;9052;53.494;14.376;2023-02-01T14:39:21;18.83;;;2.83;;
17852;SDS011;9052;53.494;14.376;2023-02-01T14:41:54;2.93;;;1.97;;
17852;SDS011;9052;53.494;14.376;2023-02-01T14:44:28;4.33;;;2.00;;
17852;SDS011;9052;53.494;14.376;2023-02-01T14:47:09;2.93;;;1.10;;
17852;SDS011;9052;53.494;14.376;2023-02-01T14:50:12;9.40;;;2.43;;
17852;SDS011;9052;53.494;14.376;2023-02-01T14:52:44;4.10;;;1.23;;
17852;SDS011;9052;53.494;14.376;2023-02-01T14:55:14;8.90;;;3.50;;
17852;SDS011;9052;53.494;14.376;2023-02-01T14:57:44;6.73;;;2.40;;
17852;SDS011;9052;53.494;14.376;2023-02-01T15:00:19;9.97;;;2.83;;
17852;SDS011;9052;53.494;14.376;2023-02-01T15:02:49;8.30;;;1.93;;
17852;SDS011;9052;53.494;14.376;2023-02-01T15:05:22;5.33;;;1.27;;
17852;SDS011;9052;53.494;14.376;2023-02-01T15:07:51;5.63;;;1.63;;
17852;SDS011;9052;53.494;14.376;2023-02-01T15:10:19;2.60;;;1.47;;
17852;SDS011;9052;53.494;14.376;2023-02-01T15:12:47;5.00;;;1.70;;
17852;SDS011;9052;53.494;14.376;2023-02-01T15:15:16;11.93;;;1.87;;
17852;SDS011;9052;53.494;14.376;2023-02-01T15:17:50;12.73;;;1.70;;
17852;SDS011;9052;53.494;14.376;2023-02-01T15:20:19;8.17;;;2.53;;
17852;SDS011;9052;53.494;14.376;2023-02-01T15:22:54;5.47;;;1.17;;
17852;SDS011;9052;53.494;14.376;2023-02-01T15:25:23;5.23;;;1.50;;
17852;SDS011;9052;53.494;14.376;2023-02-01T15:27:50;1.90;;;1.33;;
17852;SDS011;9052;53.494;14.376;2023-02-01T15:30:18;3.23;;;1.37;;
17852;SDS011;9052;53.494;14.376;2023-02-01T15:32:46;8.63;;;1.30;;